Time;durP1;ratioP1;P1;durP2;ratioP2;P2;SDS_P1;SDS_P2;PMS_P1;PMS_P2;Temp;Humidity;BMP_temperature;BMP_pressure;BME280_temperature;BME280_humidity;BME280_pressure;Samples;Min_cycle;Max_cycle;Signal;HPM_P1;HPM_P2
2023/08/26 00:01:45;;;;;;;37.95;24.23;;;;;;;26.15;nan;97586.16;5023016;28;20124;-65
2023/08/26 00:04:14;;;;;;;33.72;22.45;;;;;;;26.13;nan;97582.94;5024122;28;20055;-66
2023/08/26 00:06:44;;;;;;;27.58;20.75;;;;;;;26.15;nan;97572.56;5017322;28;20694;-66
2023/08/26 00:09:14;;;;;;;27.25;19.30;;;;;;;26.14;nan;97566.34;5022787;28;20162;-65
2023/08/26 00:11:43;;;;;;;23.23;18.52;;;;;;;26.13;nan;97575.59;5022001;28;20049;-65
2023/08/26 00:14:12;;;;;;;21.70;17.10;;;;;;;26.13;nan;97581.03;5004072;28;20124;-65
2023/08/26 00:16:42;;;;;;;24.05;18.73;;;;;;;26.20;nan;97585.97;5022135;28;20053;-65
2023/08/26 00:19:11;;;;;;;25.38;18.23;;;;;;;26.18;nan;97593.63;5023319;28;20056;-65
2023/08/26 00:21:41;;;;;;;23.45;17.83;;;;;;;26.18;nan;97588.19;5024888;28;20153;-65
2023/08/26 00:24:11;;;;;;;25.67;18.23;;;;;;;26.15;nan;97589.66;5023945;28;20053;-64
2023/08/26 00:26:41;;;;;;;23.85;17.13;;;;;;;26.15;nan;97595.09;5023944;28;20126;-65
2023/08/26 00:29:11;;;;;;;23.08;17.42;;;;;;;26.15;nan;97597.00;5017634;28;20833;-65
2023/08/26 00:31:40;;;;;;;25.83;16.90;;;;;;;26.18;nan;97593.63;5020605;28;20683;-65
2023/08/26 00:34:12;;;;;;;24.80;16.88;;;;;;;26.13;nan;97591.88;5022182;28;20075;-65
2023/08/26 00:36:42;;;;;;;21.63;16.63;;;;;;;26.15;nan;97600.50;5016531;28;20342;-65
2023/08/26 00:39:11;;;;;;;22.25;16.42;;;;;;;26.24;nan;97608.69;4998371;28;20120;-65
2023/08/26 00:41:41;;;;;;;22.05;16.58;;;;;;;26.19;nan;97604.19;5016133;28;20553;-66
2023/08/26 00:44:11;;;;;;;22.73;17.13;;;;;;;26.09;nan;97611.84;4999003;28;20053;-65
2023/08/26 00:46:40;;;;;;;22.40;16.83;;;;;;;26.11;nan;97615.81;4998957;28;20058;-65
2023/08/26 00:49:10;;;;;;;23.88;17.85;;;;;;;26.16;nan;97625.72;4999820;28;20111;-67
2023/08/26 00:51:40;;;;;;;31.17;19.67;;;;;;;26.10;nan;97622.38;5015619;28;20867;-66
2023/08/26 00:54:09;;;;;;;28.52;20.60;;;;;;;25.99;nan;97628.44;5003091;28;20493;-65
2023/08/26 00:56:39;;;;;;;24.55;19.77;;;;;;;26.07;nan;97635.81;5016891;28;20064;-66
2023/08/26 00:59:09;;;;;;;30.17;22.40;;;;;;;26.03;nan;97634.81;4997034;28;20049;-65
2023/08/26 01:01:39;;;;;;;28.27;21.02;;;;;;;26.13;nan;97631.78;4981330;28;20130;-67
2023/08/26 01:04:08;;;;;;;32.30;22.77;;;;;;;26.04;nan;97628.28;5011089;28;20048;-66
2023/08/26 01:06:39;;;;;;;30.58;22.08;;;;;;;26.20;nan;97637.56;5016958;28;20060;-66
2023/08/26 01:09:09;;;;;;;31.00;21.60;;;;;;;26.15;nan;97640.44;5022038;28;20069;-66
2023/08/26 01:11:50;;;;;;;30.92;21.00;;;;;;;26.06;nan;97636.91;5023115;28;20132;-66
2023/08/26 01:14:25;;;;;;;29.15;21.83;;;;;;;26.13;nan;97640.75;4995073;28;20046;-66
2023/08/26 01:16:54;;;;;;;;;;;;;;;26.12;nan;97639.13;4998567;28;20563;-66
2023/08/26 01:19:38;;;;;;;26.80;17.98;;;;;;;26.11;nan;97653.03;5007210;28;20032;-66
2023/08/26 01:22:08;;;;;;;;;;;;;;;26.12;nan;97649.19;5023097;28;20418;-66
2023/08/26 01:24:42;;;;;;;17.20;14.07;;;;;;;26.03;nan;97643.75;5022718;28;20027;-66
2023/08/26 01:27:11;;;;;;;;;;;;;;;26.24;nan;97652.91;5017864;28;20104;-66
2023/08/26 01:29:41;;;;;;;17.05;13.27;;;;;;;26.06;nan;97659.41;5006795;28;19932;-66
2023/08/26 01:32:42;;;;;;;19.83;14.50;;;;;;;26.33;nan;97655.63;5006373;28;20739;-66
2023/08/26 01:35:18;;;;;;;17.67;12.88;;;;;;;26.32;nan;97667.59;4998651;28;20163;-66
2023/08/26 01:37:49;;;;;;;13.73;10.65;;;;;;;26.21;nan;97663.59;5007460;28;20053;-66
2023/08/26 01:40:24;;;;;;;18.38;11.45;;;;;;;26.42;nan;97675.44;5023488;28;20045;-66
2023/08/26 01:42:55;;;;;;;16.20;12.00;;;;;;;26.41;nan;97662.16;5024458;28;20045;-66
2023/08/26 01:45:24;;;;;;;15.35;11.02;;;;;;;26.12;nan;97666.28;5004243;28;20596;-66
2023/08/26 01:47:54;;;;;;;14.43;10.15;;;;;;;26.35;nan;97662.31;5004499;28;20049;-66
2023/08/26 01:50:23;;;;;;;13.20;10.05;;;;;;;26.44;nan;97662.31;5006237;28;20511;-66
2023/08/26 01:52:53;;;;;;;11.70;9.23;;;;;;;26.60;nan;97663.41;5008938;28;20045;-66
2023/08/26 01:55:22;;;;;;;10.63;8.70;;;;;;;26.57;nan;97664.06;5041508;28;20060;-66
2023/08/26 01:57:51;;;;;;;12.70;8.52;;;;;;;26.71;nan;97661.97;5008278;28;20131;-66
2023/08/26 02:00:21;;;;;;;12.65;9.23;;;;;;;26.74;nan;97655.09;5017974;28;25687;-66
2023/08/26 02:02:50;;;;;;;9.10;7.72;;;;;;;26.72;nan;97658.13;5041438;28;20059;-67
2023/08/26 02:05:20;;;;;;;10.50;8.30;;;;;;;26.72;nan;97657.34;5019788;28;20496;-67
2023/08/26 02:07:49;;;;;;;7.28;6.32;;;;;;;26.76;nan;97653.66;5024169;28;20139;-66
2023/08/26 02:10:22;;;;;;;9.48;7.10;;;;;;;26.69;nan;97650.63;5036080;28;20045;-67
2023/08/26 02:12:51;;;;;;;12.95;8.30;;;;;;;26.87;nan;97647.88;5024966;28;20110;-67
2023/08/26 02:15:21;;;;;;;11.38;8.07;;;;;;;27.02;nan;97647.38;5036212;28;20045;-67
2023/08/26 02:17:50;;;;;;;8.20;6.90;;;;;;;26.97;nan;97642.91;5023746;28;20622;-67
2023/08/26 02:20:23;;;;;;;12.00;6.85;;;;;;;27.12;nan;97638.88;5018813;28;20049;-68
2023/08/26 02:22:52;;;;;;;9.48;7.72;;;;;;;27.44;nan;97646.38;5043700;28;20059;-67
2023/08/26 02:25:21;;;;;;;9.40;6.57;;;;;;;27.63;nan;97644.09;5019182;28;20157;-67
2023/08/26 02:27:51;;;;;;;9.43;5.72;;;;;;;27.84;nan;97632.44;5024778;28;20055;-65
2023/08/26 02:30:20;;;;;;;7.78;4.85;;;;;;;27.97;nan;97640.34;5036783;28;20055;-66
2023/08/26 02:32:49;;;;;;;6.07;5.13;;;;;;;28.23;nan;97644.84;5042697;28;20045;-66
2023/08/26 02:35:19;;;;;;;9.02;4.90;;;;;;;28.64;nan;97643.97;5025860;28;20140;-66
2023/08/26 02:37:48;;;;;;;6.18;4.00;;;;;;;28.70;nan;97643.47;5039889;28;20368;-68
2023/08/26 02:40:18;;;;;;;8.02;3.97;;;;;;;28.90;nan;97650.75;5038156;28;20342;-67
2023/08/26 02:42:48;;;;;;;6.32;4.05;;;;;;;29.15;nan;97654.34;5039879;28;20040;-67
2023/08/26 02:45:18;;;;;;;5.38;3.30;;;;;;;28.62;nan;97652.50;5024787;28;20136;-67
2023/08/26 02:47:47;;;;;;;7.50;3.20;;;;;;;28.69;nan;97652.72;5040308;28;20059;-67
2023/08/26 02:50:17;;;;;;;3.53;2.85;;;;;;;28.98;nan;97657.28;5026298;28;20114;-68
2023/08/26 02:52:47;;;;;;;5.00;3.05;;;;;;;29.13;nan;97656.63;5021549;28;20388;-68
2023/08/26 02:55:17;;;;;;;5.47;3.20;;;;;;;29.09;nan;97658.44;5025011;28;20110;-67
2023/08/26 02:57:46;;;;;;;6.47;3.20;;;;;;;28.86;nan;97657.22;5043823;28;20055;-67
2023/08/26 03:00:16;;;;;;;5.97;3.13;;;;;;;28.95;nan;97660.66;5018116;28;20149;-67
2023/08/26 03:02:45;;;;;;;5.13;3.15;;;;;;;29.02;nan;97667.19;5037467;28;20690;-67
2023/08/26 03:05:16;;;;;;;7.28;2.97;;;;;;;29.04;nan;97658.63;5029182;28;20064;-67
2023/08/26 03:07:45;;;;;;;4.18;2.80;;;;;;;29.13;nan;97662.06;5038149;28;20068;-66
2023/08/26 03:10:15;;;;;;;6.13;3.28;;;;;;;29.08;nan;97654.09;5036352;28;20156;-67
2023/08/26 03:12:44;;;;;;;3.95;2.90;;;;;;;28.96;nan;97649.44;5046266;28;20052;-66
2023/08/26 03:15:16;;;;;;;6.88;3.35;;;;;;;28.99;nan;97658.84;5046043;28;20139;-67
2023/08/26 03:17:45;;;;;;;4.97;2.95;;;;;;;29.09;nan;97669.34;5044584;28;20165;-66
2023/08/26 03:20:15;;;;;;;6.68;3.22;;;;;;;29.15;nan;97664.47;5027285;28;20063;-66
2023/08/26 03:22:45;;;;;;;6.07;3.38;;;;;;;28.95;nan;97666.91;5041152;28;20388;-65
2023/08/26 03:25:15;;;;;;;4.90;2.60;;;;;;;29.06;nan;97674.66;5041090;28;20056;-66
2023/08/26 03:27:44;;;;;;;5.35;2.95;;;;;;;29.03;nan;97665.25;5041587;28;20049;-67
2023/08/26 03:30:13;;;;;;;6.47;3.55;;;;;;;29.08;nan;97675.91;5017945;28;20122;-66
2023/08/26 03:32:43;;;;;;;7.55;3.40;;;;;;;29.06;nan;97671.94;5017781;28;20045;-67
2023/08/26 03:35:12;;;;;;;4.47;3.13;;;;;;;28.87;nan;97675.19;5044376;28;20795;-66
2023/08/26 03:37:41;;;;;;;6.38;3.25;;;;;;;28.83;nan;97674.28;5024828;28;20063;-66
2023/08/26 03:40:11;;;;;;;4.63;3.05;;;;;;;28.83;nan;97679.72;5044500;28;20065;-67
2023/08/26 03:42:41;;;;;;;8.15;3.53;;;;;;;28.90;nan;97674.53;5015632;28;20057;-67
2023/08/26 03:45:12;;;;;;;7.10;3.90;;;;;;;28.76;nan;97680.28;5042331;28;20428;-66
2023/08/26 03:47:42;;;;;;;7.97;2.92;;;;;;;29.02;nan;97682.75;5043895;28;20056;-66
2023/08/26 03:50:12;;;;;;;5.70;3.08;;;;;;;29.14;nan;97680.03;5027550;28;20122;-65
2023/08/26 03:52:42;;;;;;;6.45;3.90;;;;;;;29.07;nan;97685.25;5026042;28;20142;-66
2023/08/26 03:55:12;;;;;;;7.78;3.85;;;;;;;28.96;nan;97686.81;5039446;28;20140;-66
2023/08/26 03:57:41;;;;;;;7.50;3.80;;;;;;;29.08;nan;97683.31;5039739;28;20429;-66
2023/08/26 04:00:11;;;;;;;10.52;3.92;;;;;;;28.96;nan;97689.53;5028287;28;20151;-68
2023/08/26 04:02:41;;;;;;;6.05;3.70;;;;;;;29.10;nan;97694.69;5043465;28;20068;-69
2023/08/26 04:05:10;;;;;;;6.90;4.03;;;;;;;28.97;nan;97697.38;5045098;28;20068;-68
2023/08/26 04:07:39;;;;;;;4.70;3.50;;;;;;;28.95;nan;97699.63;5027895;28;20080;-67
2023/08/26 04:10:10;;;;;;;7.55;3.97;;;;;;;28.96;nan;97701.22;5042352;28;20128;-67
2023/08/26 04:12:39;;;;;;;6.63;4.20;;;;;;;29.04;nan;97694.09;5027711;28;20071;-67
2023/08/26 04:15:08;;;;;;;11.63;4.60;;;;;;;29.13;nan;97694.00;5026117;28;20678;-67
2023/08/26 04:17:39;;;;;;;7.10;5.00;;;;;;;29.14;nan;97695.59;5045222;28;20060;-67
2023/08/26 04:20:11;;;;;;;9.82;4.47;;;;;;;29.19;nan;97703.56;5043509;28;20520;-69
2023/08/26 04:22:43;;;;;;;11.57;4.30;;;;;;;29.11;nan;97699.81;5044467;28;20052;-69
2023/08/26 04:25:12;;;;;;;12.05;4.68;;;;;;;29.37;nan;97705.78;5032515;28;20361;-69
2023/08/26 04:27:41;;;;;;;7.93;5.10;;;;;;;29.54;nan;97701.25;5038124;28;20049;-67
2023/08/26 04:30:12;;;;;;;9.32;4.40;;;;;;;29.84;nan;97708.06;5016072;28;20041;-70
2023/08/26 04:32:41;;;;;;;7.18;4.82;;;;;;;29.65;nan;97714.09;5039916;28;20147;-68
2023/08/26 04:35:10;;;;;;;8.68;5.50;;;;;;;29.55;nan;97721.94;5016350;28;20049;-67
2023/08/26 04:37:40;;;;;;;7.93;5.28;;;;;;;29.61;nan;97710.44;5024859;28;20793;-66
2023/08/26 04:40:13;;;;;;;16.00;5.70;;;;;;;29.61;nan;97717.88;5026512;28;20491;-66
2023/08/26 04:42:42;;;;;;;6.95;4.72;;;;;;;29.67;nan;97720.03;5042218;28;20685;-69
2023/08/26 04:45:16;;;;;;;8.35;4.45;;;;;;;30.18;nan;97712.28;5022203;28;20057;-69
2023/08/26 04:47:46;;;;;;;10.55;5.75;;;;;;;30.41;nan;97716.09;5031749;28;20107;-68
2023/08/26 04:50:16;;;;;;;7.30;4.50;;;;;;;30.94;nan;97717.63;5042780;28;20060;-68
2023/08/26 04:52:46;;;;;;;8.82;4.78;;;;;;;30.76;nan;97702.66;5043077;28;20052;-67
2023/08/26 04:55:16;;;;;;;16.48;4.85;;;;;;;31.23;nan;97711.00;5043198;28;20044;-69
2023/08/26 04:57:47;;;;;;;9.77;4.32;;;;;;;31.32;nan;97713.56;5025973;28;20052;-69
2023/08/26 05:00:19;;;;;;;7.05;4.68;;;;;;;31.44;nan;97721.69;5040065;28;20049;-69
2023/08/26 05:02:49;;;;;;;9.48;4.63;;;;;;;32.25;nan;97723.69;5036386;28;20045;-69
2023/08/26 05:05:19;;;;;;;9.05;4.57;;;;;;;31.87;nan;97727.09;5025654;28;20099;-69
2023/08/26 05:07:51;;;;;;;9.52;4.78;;;;;;;32.24;nan;97726.78;5022835;28;20045;-68
2023/08/26 05:10:23;;;;;;;9.85;4.65;;;;;;;32.60;nan;97731.88;5041963;28;20152;-68
2023/08/26 05:12:53;;;;;;;9.10;4.50;;;;;;;32.06;nan;97724.41;5044861;28;20053;-68
2023/08/26 05:15:23;;;;;;;7.25;3.88;;;;;;;32.46;nan;97731.59;5021842;28;20052;-68
2023/08/26 05:17:52;;;;;;;6.65;4.20;;;;;;;32.56;nan;97730.22;5023992;28;20050;-68
2023/08/26 05:20:22;;;;;;;8.40;4.40;;;;;;;32.34;nan;97729.78;5025487;28;20133;-68
2023/08/26 05:22:51;;;;;;;13.65;5.15;;;;;;;32.56;nan;97722.81;5017355;28;20772;-69
2023/08/26 05:25:20;;;;;;;10.60;4.88;;;;;;;32.62;nan;97729.59;5007475;28;20182;-69
2023/08/26 05:27:50;;;;;;;7.82;4.60;;;;;;;32.74;nan;97737.72;5014751;28;20041;-69
2023/08/26 05:30:20;;;;;;;10.18;4.70;;;;;;;33.00;nan;97728.00;5022988;28;20646;-68
2023/08/26 05:32:54;;;;;;;12.15;5.13;;;;;;;32.84;nan;97734.34;5019317;28;20051;-69
2023/08/26 05:35:25;;;;;;;5.72;4.18;;;;;;;32.65;nan;97733.59;5001506;28;20135;-69
2023/08/26 05:37:55;;;;;;;10.60;4.63;;;;;;;33.20;nan;97732.31;5021861;28;20452;-69
2023/08/26 05:40:29;;;;;;;8.90;4.82;;;;;;;33.50;nan;97735.22;5037619;28;20156;-69
2023/08/26 05:42:58;;;;;;;11.15;4.55;;;;;;;33.36;nan;97725.59;5022921;28;20045;-69
2023/08/26 05:45:32;;;;;;;8.48;4.30;;;;;;;33.72;nan;97732.50;5024911;28;20693;-68
2023/08/26 05:48:02;;;;;;;6.40;4.15;;;;;;;33.75;nan;97726.28;5039987;28;20616;-69
2023/08/26 05:50:32;;;;;;;7.70;4.28;;;;;;;33.66;nan;97730.44;5041808;28;20059;-67
2023/08/26 05:53:10;;;;;;;8.63;4.22;;;;;;;33.44;nan;97728.44;5025997;28;20072;-67
2023/08/26 05:55:44;;;;;;;10.10;4.32;;;;;;;33.77;nan;97723.13;5041765;28;20388;-67
2023/08/26 05:58:13;;;;;;;7.35;4.85;;;;;;;33.60;nan;97723.63;5039484;28;20124;-68
2023/08/26 06:00:42;;;;;;;9.90;4.95;;;;;;;33.64;nan;97725.25;5039217;28;20141;-67
2023/08/26 06:03:12;;;;;;;11.07;5.03;;;;;;;33.32;nan;97721.19;5037670;28;20053;-66
2023/08/26 06:05:41;;;;;;;11.55;5.35;;;;;;;33.01;nan;97715.88;5034882;28;20057;-67
2023/08/26 06:08:11;;;;;;;10.23;4.82;;;;;;;33.61;nan;97719.72;5037118;28;20053;-66
2023/08/26 06:10:41;;;;;;;10.27;5.28;;;;;;;33.32;nan;97721.19;5022502;28;20079;-66
2023/08/26 06:13:11;;;;;;;16.17;5.32;;;;;;;33.48;nan;97727.34;5024206;28;20045;-67
2023/08/26 06:15:40;;;;;;;11.82;5.35;;;;;;;33.56;nan;97717.28;5040114;28;20049;-66
2023/08/26 06:18:10;;;;;;;9.13;5.20;;;;;;;33.70;nan;97718.34;5023996;28;20132;-66
2023/08/26 06:20:39;;;;;;;10.95;5.28;;;;;;;33.70;nan;97707.34;5020794;28;20045;-67
2023/08/26 06:23:08;;;;;;;8.98;5.38;;;;;;;33.27;nan;97710.50;5030869;28;20053;-65
2023/08/26 06:25:37;;;;;;;8.85;4.70;;;;;;;33.47;nan;97709.28;5024279;28;20413;-65
2023/08/26 06:28:08;;;;;;;17.33;6.38;;;;;;;33.71;nan;97705.41;5035246;28;20710;-64
2023/08/26 06:30:37;;;;;;;15.45;6.22;;;;;;;33.76;nan;97705.09;5028227;28;20053;-63
2023/08/26 06:33:07;;;;;;;10.73;5.45;;;;;;;33.61;nan;97706.78;5037804;28;20488;-66
2023/08/26 06:35:37;;;;;;;14.63;5.85;;;;;;;33.70;nan;97699.09;5041928;28;20060;-68
2023/08/26 06:38:07;;;;;;;19.20;7.15;;;;;;;33.74;nan;97708.19;5021216;28;20055;-71
2023/08/26 06:40:37;;;;;;;10.98;5.35;;;;;;;33.26;nan;97695.19;5023652;28;20041;-69
2023/08/26 06:43:07;;;;;;;13.32;5.78;;;;;;;33.44;nan;97693.56;5031549;28;20161;-69
2023/08/26 06:45:36;;;;;;;10.98;5.82;;;;;;;33.44;nan;97692.75;5003790;28;20054;-69
2023/08/26 06:48:06;;;;;;;18.98;6.28;;;;;;;33.13;nan;97693.75;5024704;28;20052;-66
2023/08/26 06:50:37;;;;;;;15.07;6.20;;;;;;;33.19;nan;97697.81;5011186;28;20098;-69
2023/08/26 06:53:07;;;;;;;8.10;5.65;;;;;;;32.91;nan;97698.84;5040425;28;20057;-67
2023/08/26 06:55:36;;;;;;;10.88;6.05;;;;;;;32.93;nan;97696.53;5011278;28;20056;-68
2023/08/26 06:58:06;;;;;;;12.95;6.05;;;;;;;33.17;nan;97698.19;5040269;28;20056;-67
2023/08/26 07:00:35;;;;;;;12.40;6.13;;;;;;;33.00;nan;97689.59;5041205;28;20052;-67
2023/08/26 07:03:05;;;;;;;14.57;6.78;;;;;;;33.16;nan;97690.31;5039808;28;20685;-64
2023/08/26 07:05:35;;;;;;;12.52;5.82;;;;;;;33.25;nan;97697.16;5037867;28;20059;-66
2023/08/26 07:08:06;;;;;;;11.18;6.57;;;;;;;33.33;nan;97681.56;5028028;28;20155;-67
2023/08/26 07:10:35;;;;;;;15.57;6.45;;;;;;;33.06;nan;97682.66;5038420;28;20102;-67
2023/08/26 07:13:05;;;;;;;16.30;6.57;;;;;;;33.25;nan;97679.88;5023804;28;20124;-67
2023/08/26 07:15:35;;;;;;;14.50;6.35;;;;;;;33.02;nan;97677.09;5041932;28;20156;-68
2023/08/26 07:18:05;;;;;;;15.27;6.72;;;;;;;32.85;nan;97677.56;5036236;28;20461;-68
2023/08/26 07:20:35;;;;;;;12.40;6.03;;;;;;;32.77;nan;97668.41;5038970;28;20048;-68
2023/08/26 07:23:04;;;;;;;12.68;6.65;;;;;;;33.13;nan;97674.53;5036015;28;20053;-68
2023/08/26 07:25:34;;;;;;;9.77;6.15;;;;;;;33.11;nan;97672.16;5030837;28;20049;-67
2023/08/26 07:28:03;;;;;;;11.15;5.63;;;;;;;33.13;nan;97667.09;5037854;28;20075;-67
2023/08/26 07:30:33;;;;;;;10.27;4.95;;;;;;;33.27;nan;97664.66;5037596;28;20160;-66
2023/08/26 07:33:02;;;;;;;10.15;4.90;;;;;;;33.31;nan;97667.44;5040261;28;20665;-66
2023/08/26 07:35:32;;;;;;;10.20;4.95;;;;;;;33.43;nan;97661.75;5036016;28;20539;-68
2023/08/26 07:38:01;;;;;;;14.23;6.70;;;;;;;33.37;nan;97666.00;5037830;28;20519;-67
2023/08/26 07:40:31;;;;;;;11.88;6.00;;;;;;;33.42;nan;97660.97;5034145;28;20158;-66
2023/08/26 07:43:00;;;;;;;11.50;7.15;;;;;;;33.51;nan;97660.69;5044096;28;20041;-66
2023/08/26 07:45:29;;;;;;;20.67;8.90;;;;;;;33.43;nan;97653.50;5041365;28;20118;-66
2023/08/26 07:47:59;;;;;;;14.50;8.65;;;;;;;33.58;nan;97660.84;5043701;28;20048;-67
2023/08/26 07:50:31;;;;;;;16.40;7.85;;;;;;;33.42;nan;97649.19;5041500;28;20114;-67
2023/08/26 07:53:00;;;;;;;17.10;8.00;;;;;;;33.34;nan;97651.03;5045132;28;20057;-67
2023/08/26 07:55:30;;;;;;;16.08;8.13;;;;;;;33.22;nan;97644.94;5038237;28;20135;-65
2023/08/26 07:58:00;;;;;;;21.10;9.52;;;;;;;33.07;nan;97648.56;5043796;28;20044;-68
2023/08/26 08:00:29;;;;;;;20.65;10.38;;;;;;;33.21;nan;97641.41;5043783;28;20126;-65
2023/08/26 08:02:58;;;;;;;21.35;10.25;;;;;;;33.11;nan;97641.16;5044055;28;20056;-66
2023/08/26 08:05:28;;;;;;;14.20;9.38;;;;;;;33.25;nan;97645.00;5043271;28;20369;-64
2023/08/26 08:07:57;;;;;;;14.75;8.15;;;;;;;33.27;nan;97641.88;5044712;28;20048;-64
2023/08/26 08:10:26;;;;;;;15.10;8.32;;;;;;;33.01;nan;97626.13;5043000;28;20056;-66
2023/08/26 08:12:56;;;;;;;18.27;9.40;;;;;;;33.20;nan;97639.81;5038950;28;20376;-66
2023/08/26 08:15:26;;;;;;;18.02;12.27;;;;;;;33.14;nan;97638.53;5034110;28;20143;-66
2023/08/26 08:17:55;;;;;;;22.58;12.32;;;;;;;33.12;nan;97627.09;5033735;28;20424;-67
2023/08/26 08:20:25;;;;;;;22.27;12.50;;;;;;;33.17;nan;97626.03;5035456;28;20142;-67
2023/08/26 08:22:54;;;;;;;18.85;10.60;;;;;;;33.22;nan;97618.28;5042482;28;20199;-67
2023/08/26 08:25:27;;;;;;;15.57;9.30;;;;;;;33.08;nan;97617.22;5039347;28;20055;-68
2023/08/26 08:27:56;;;;;;;17.55;10.70;;;;;;;33.13;nan;97616.91;5039197;28;20061;-69
2023/08/26 08:30:25;;;;;;;18.95;10.82;;;;;;;33.07;nan;97612.88;5023936;28;20053;-67
2023/08/26 08:32:55;;;;;;;24.30;12.35;;;;;;;33.08;nan;97608.97;5029194;28;20061;-68
2023/08/26 08:35:27;;;;;;;24.23;12.30;;;;;;;33.13;nan;97611.41;5023463;28;20064;-68
2023/08/26 08:37:57;;;;;;;23.25;11.68;;;;;;;32.94;nan;97610.31;5006836;28;20049;-69
2023/08/26 08:40:27;;;;;;;17.60;11.75;;;;;;;33.04;nan;97603.44;5035560;28;20060;-68
2023/08/26 08:43:01;;;;;;;22.38;12.20;;;;;;;33.11;nan;97602.75;5019323;28;20728;-65
2023/08/26 08:45:34;;;;;;;18.83;11.25;;;;;;;33.09;nan;97596.84;5017504;28;20203;-68
2023/08/26 08:48:04;;;;;;;20.60;11.20;;;;;;;33.06;nan;97595.63;5030446;28;20653;-66
2023/08/26 08:50:35;;;;;;;17.38;10.80;;;;;;;33.12;nan;97598.84;5014338;28;20049;-66
2023/08/26 08:53:08;;;;;;;22.60;11.40;;;;;;;33.21;nan;97596.69;5034135;28;20386;-66
2023/08/26 08:55:38;;;;;;;18.70;11.73;;;;;;;33.10;nan;97591.00;5033144;28;20060;-67
2023/08/26 08:58:10;;;;;;;18.92;10.57;;;;;;;32.91;nan;97585.56;5031118;28;20290;-67
2023/08/26 09:00:41;;;;;;;19.15;10.85;;;;;;;33.14;nan;97585.56;5027287;28;20499;-69
2023/08/26 09:03:12;;;;;;;19.23;11.27;;;;;;;33.11;nan;97586.28;5037580;28;20052;-70
2023/08/26 09:05:41;;;;;;;21.23;11.45;;;;;;;33.05;nan;97582.28;5033836;28;20055;-68
2023/08/26 09:08:14;;;;;;;20.33;11.32;;;;;;;33.13;nan;97573.00;5035752;28;20155;-68
2023/08/26 09:10:46;;;;;;;19.73;11.15;;;;;;;32.80;nan;97571.66;5038594;28;20489;-68
2023/08/26 09:13:16;;;;;;;27.23;12.63;;;;;;;32.96;nan;97564.13;5037941;28;20110;-68
2023/08/26 09:15:46;;;;;;;26.52;13.07;;;;;;;32.97;nan;97567.66;5038791;28;20041;-68
2023/08/26 09:18:18;;;;;;;24.40;13.00;;;;;;;32.94;nan;97554.66;5047074;28;20439;-68
2023/08/26 09:20:47;;;;;;;29.75;14.25;;;;;;;33.01;nan;97556.75;5040841;28;20053;-66
2023/08/26 09:23:17;;;;;;;20.65;13.95;;;;;;;33.02;nan;97561.06;5034186;28;20051;-66
2023/08/26 09:25:56;;;;;;;23.25;13.85;;;;;;;33.13;nan;97556.53;5044418;28;20068;-66
2023/08/26 09:28:26;;;;;;;29.02;15.05;;;;;;;33.07;nan;97558.78;5040137;28;20061;-66
2023/08/26 09:31:03;;;;;;;26.88;16.27;;;;;;;32.99;nan;97548.88;5029566;28;20055;-68
2023/08/26 09:33:34;;;;;;;26.42;15.10;;;;;;;33.02;nan;97541.88;5044975;28;20055;-67
2023/08/26 09:36:04;;;;;;;25.25;17.02;;;;;;;32.92;nan;97541.31;5037371;28;20393;-67
2023/08/26 09:38:47;;;;;;;;;;;;;;;32.98;nan;97534.34;5023700;28;20120;-66
2023/08/26 09:41:19;;;;;;;32.30;16.58;;;;;;;32.97;nan;97529.25;5038592;28;19971;-66
2023/08/26 09:43:49;;;;;;;;;;;;;;;32.97;nan;97521.03;5036299;28;20065;-65
2023/08/26 09:46:20;;;;;;;26.48;15.98;;;;;;;32.93;nan;97518.19;5036687;28;19943;-66
2023/08/26 09:48:51;;;;;;;29.40;16.38;;;;;;;32.87;nan;97519.69;5033925;28;20057;-66
2023/08/26 09:51:29;;;;;;;23.85;16.42;;;;;;;32.85;nan;97511.00;5040364;28;20646;-67
2023/08/26 09:54:00;;;;;;;24.83;15.75;;;;;;;32.86;nan;97504.38;5038271;28;20053;-64
2023/08/26 09:56:30;;;;;;;26.33;15.70;;;;;;;32.84;nan;97500.44;5037802;28;20111;-66
2023/08/26 09:59:00;;;;;;;26.50;16.63;;;;;;;32.90;nan;97504.44;5039444;28;20510;-66
2023/08/26 10:01:29;;;;;;;24.88;15.90;;;;;;;32.81;nan;97510.16;5037176;28;20045;-65
2023/08/26 10:04:10;;;;;;;27.25;16.48;;;;;;;32.80;nan;97521.50;5037613;28;20088;-67
2023/08/26 10:06:43;;;;;;;22.85;14.40;;;;;;;32.77;nan;97514.00;5034447;28;20045;-67
2023/08/26 10:09:31;;;;;;;25.02;13.95;;;;;;;32.66;nan;97515.78;5034920;28;20056;-65
2023/08/26 10:12:05;;;;;;;25.73;15.55;;;;;;;32.66;nan;97527.56;5038602;28;20049;-64
2023/08/26 10:14:38;;;;;;;23.30;14.30;;;;;;;32.61;nan;97525.09;5037931;28;20053;-65
2023/08/26 10:17:11;;;;;;;25.67;15.20;;;;;;;32.60;nan;97528.19;5038292;28;20044;-65
2023/08/26 10:19:41;;;;;;;;;;;;;;;32.63;nan;97524.72;5038864;28;20130;-64
2023/08/26 10:22:11;;;;;;;26.65;13.38;;;;;;;32.63;nan;97522.78;5039448;28;19924;-63
2023/08/26 10:24:45;;;;;;;26.08;15.35;;;;;;;32.58;nan;97520.31;5037533;28;20041;-67
2023/08/26 10:27:16;;;;;;;27.33;15.90;;;;;;;32.50;nan;97508.44;5034338;28;20045;-67
2023/08/26 10:29:47;;;;;;;24.38;14.07;;;;;;;32.49;nan;97517.00;5014807;28;20110;-66
2023/08/26 10:32:19;;;;;;;29.13;14.95;;;;;;;32.41;nan;97515.31;5042614;28;20053;-67
2023/08/26 10:34:59;;;;;;;26.67;15.68;;;;;;;32.43;nan;97513.00;5037650;28;20436;-65
2023/08/26 10:37:31;;;;;;;29.08;14.32;;;;;;;32.39;nan;97501.19;5041463;28;20103;-67
2023/08/26 10:40:13;;;;;;;19.17;12.98;;;;;;;32.34;nan;97499.53;5039033;28;20083;-65
2023/08/26 10:43:07;;;;;;;25.08;14.40;;;;;;;32.36;nan;97490.94;5028417;28;20136;-65
2023/08/26 10:45:46;;;;;;;;;;;;;;;32.30;nan;97489.66;5024591;28;20055;-66
2023/08/26 10:48:16;;;;;;;22.65;14.05;;;;;;;32.27;nan;97493.91;5005518;28;20394;-67
2023/08/26 10:51:02;;;;;;;19.75;12.35;;;;;;;32.23;nan;97482.09;5042238;28;20130;-68
2023/08/26 10:53:44;;;;;;;18.70;12.25;;;;;;;32.26;nan;97494.28;5019901;28;20061;-68
2023/08/26 10:56:15;;;;;;;22.30;12.00;;;;;;;32.24;nan;97486.41;5038816;28;20756;-66
2023/08/26 10:58:48;;;;;;;21.08;12.02;;;;;;;32.21;nan;97486.38;5031249;28;20049;-65
2023/08/26 11:01:18;;;;;;;19.10;11.68;;;;;;;32.18;nan;97476.91;5016434;28;20040;-68
2023/08/26 11:03:47;;;;;;;23.92;11.27;;;;;;;32.16;nan;97475.69;5041234;28;20041;-67
2023/08/26 11:06:22;;;;;;;20.90;11.13;;;;;;;32.13;nan;97482.72;5041154;28;20044;-67
2023/08/26 11:08:58;;;;;;;19.58;11.10;;;;;;;32.09;nan;97470.88;5028517;28;20163;-68
2023/08/26 11:11:27;;;;;;;21.15;11.32;;;;;;;32.12;nan;97478.38;5016549;28;20053;-67
2023/08/26 11:13:57;;;;;;;22.95;10.85;;;;;;;32.14;nan;97481.53;5015737;28;20049;-67
2023/08/26 11:16:27;;;;;;;15.48;10.00;;;;;;;32.09;nan;97471.66;5036273;28;20060;-67
2023/08/26 11:18:57;;;;;;;14.15;9.32;;;;;;;32.09;nan;97468.13;5035111;28;20049;-69
2023/08/26 11:21:27;;;;;;;21.38;11.70;;;;;;;32.06;nan;97468.81;5033091;28;20072;-68
2023/08/26 11:24:00;;;;;;;18.40;10.50;;;;;;;32.09;nan;97463.44;5029091;28;20146;-67
2023/08/26 11:26:31;;;;;;;19.73;10.50;;;;;;;32.09;nan;97471.66;5015467;28;20099;-69
2023/08/26 11:29:02;;;;;;;18.92;9.18;;;;;;;32.05;nan;97468.03;5000399;28;20428;-69
2023/08/26 11:31:38;;;;;;;25.45;10.95;;;;;;;32.02;nan;97476.97;5021672;28;20041;-68
2023/08/26 11:34:07;;;;;;;14.00;9.15;;;;;;;32.00;nan;97483.97;5035891;28;20084;-70
2023/08/26 11:36:37;;;;;;;19.88;9.80;;;;;;;32.00;nan;97475.75;5038224;28;20045;-69
2023/08/26 11:39:17;;;;;;;15.20;9.20;;;;;;;31.95;nan;97487.81;5033853;28;20049;-68
2023/08/26 11:41:46;;;;;;;16.15;10.10;;;;;;;31.94;nan;97493.66;5031779;28;20050;-70
2023/08/26 11:44:16;;;;;;;19.42;9.70;;;;;;;31.93;nan;97489.31;5031300;28;20052;-69
2023/08/26 11:46:46;;;;;;;16.23;9.43;;;;;;;31.94;nan;97491.69;5032243;28;20053;-70
2023/08/26 11:49:15;;;;;;;17.80;9.20;;;;;;;31.85;nan;97491.13;5036234;28;20092;-71
2023/08/26 11:51:46;;;;;;;20.48;8.75;;;;;;;31.87;nan;97483.31;5030986;28;20041;-70
2023/08/26 11:54:25;;;;;;;18.48;9.45;;;;;;;31.81;nan;97481.25;5015152;28;20133;-69
2023/08/26 11:56:54;;;;;;;15.55;9.57;;;;;;;31.70;nan;97488.44;5034344;28;20052;-68
2023/08/26 11:59:24;;;;;;;16.42;10.07;;;;;;;31.58;nan;97487.44;5036061;28;20500;-70